NKS1832 KDTW-KDFW
Flight info
| Callsign | NKS1832 |
|---|---|
| Flight time | 2h 40m |
| Altitude | 28000 |
| Route | SNDRS3 BGHRT STL RZC FSM RRNET BRDJE5 |
| Aircraft | A321/M-SDE3FGHIRWY/LB1 |
Departure
| Time | 2026-05-06 04:48 |
|---|---|
| Airport | Detroit Metropolitan Wayne County Airport (KDTW) |
Arrival
| Time | 2026-05-06 07:28 |
|---|---|
| Airport | Dallas Fort Worth International Airport (KDFW) |
| Time | Latitude | Longitude | Altitude | Speed | Heading |
|---|---|---|---|---|---|
| 2026-05-06 04:19 | 42.22758 | -83.34794 | 647 ft | 0 kts | 120° |
| 2026-05-06 04:20 | 42.22758 | -83.34795 | 648 ft | 0 kts | 119° |
| 2026-05-06 04:41 | 42.22761 | -83.34801 | 646 ft | 4 kts | 118° |
| 2026-05-06 04:41 | 42.22772 | -83.34830 | 647 ft | 2 kts | 119° |
| 2026-05-06 04:41 | 42.22780 | -83.34857 | 646 ft | 4 kts | 72° |
| 2026-05-06 04:41 | 42.22766 | -83.34878 | 649 ft | 4 kts | 28° |
| 2026-05-06 04:42 | 42.22752 | -83.34888 | 647 ft | 0 kts | 28° |
| 2026-05-06 04:43 | 42.22771 | -83.34874 | 648 ft | 10 kts | 28° |
| 2026-05-06 04:44 | 42.22823 | -83.34836 | 646 ft | 12 kts | 28° |
| 2026-05-06 04:44 | 42.22867 | -83.34803 | 646 ft | 6 kts | 28° |
| 2026-05-06 04:44 | 42.22906 | -83.34777 | 646 ft | 0 kts | 21° |
| 2026-05-06 04:45 | 42.22913 | -83.34776 | 647 ft | 5 kts | 7° |
| 2026-05-06 04:45 | 42.22987 | -83.34794 | 646 ft | 13 kts | 347° |
| 2026-05-06 04:45 | 42.23048 | -83.34865 | 650 ft | 12 kts | 300° |
| 2026-05-06 04:45 | 42.23088 | -83.34973 | 646 ft | 15 kts | 281° |
| 2026-05-06 04:46 | 42.23046 | -83.35056 | 646 ft | 0 kts | 207° |
| 2026-05-06 04:46 | 42.23036 | -83.35064 | 647 ft | 13 kts | 207° |
| 2026-05-06 04:46 | 42.22718 | -83.35298 | 647 ft | 88 kts | 208° |
| 2026-05-06 04:46 | 42.22174 | -83.35697 | 647 ft | 136 kts | 208° |
| 2026-05-06 04:47 | 42.21972 | -83.35844 | 646 ft | 149 kts | 208° |
| 2026-05-06 04:47 | 42.21655 | -83.36076 | 648 ft | 165 kts | 208° |
| 2026-05-06 04:47 | 42.20598 | -83.36845 | 1208 ft | 168 kts | 210° |
| 2026-05-06 04:48 | 42.19586 | -83.37595 | 1876 ft | 168 kts | 213° |
| 2026-05-06 04:48 | 42.18514 | -83.38409 | 2091 ft | 185 kts | 213° |
| 2026-05-06 04:48 | 42.17429 | -83.39237 | 2280 ft | 197 kts | 212° |
| 2026-05-06 04:48 | 42.16207 | -83.40257 | 2452 ft | 211 kts | 219° |
| 2026-05-06 04:49 | 42.15019 | -83.41519 | 2585 ft | 224 kts | 221° |
| 2026-05-06 04:49 | 42.13859 | -83.42802 | 2688 ft | 241 kts | 222° |
| 2026-05-06 04:49 | 42.12562 | -83.44250 | 2824 ft | 258 kts | 221° |
| 2026-05-06 04:49 | 42.11115 | -83.45851 | 3157 ft | 265 kts | 221° |
| 2026-05-06 04:50 | 42.09679 | -83.47432 | 3602 ft | 267 kts | 221° |
| 2026-05-06 04:50 | 42.08242 | -83.49012 | 4088 ft | 267 kts | 221° |
| 2026-05-06 04:50 | 42.06805 | -83.50591 | 4581 ft | 266 kts | 221° |
| 2026-05-06 04:50 | 42.05368 | -83.52166 | 5056 ft | 266 kts | 221° |
| 2026-05-06 04:51 | 42.03939 | -83.53731 | 5532 ft | 265 kts | 221° |
| 2026-05-06 04:51 | 42.02520 | -83.55290 | 5951 ft | 267 kts | 221° |
| 2026-05-06 04:51 | 42.01076 | -83.56872 | 6395 ft | 268 kts | 221° |
| 2026-05-06 04:51 | 42.00961 | -83.56990 | 6435 ft | 268 kts | 219° |
| 2026-05-06 04:52 | 42.00155 | -83.57731 | 6637 ft | 269 kts | 213° |
| 2026-05-06 04:52 | 41.98496 | -83.58920 | 7344 ft | 270 kts | 211° |
| 2026-05-06 04:52 | 41.96839 | -83.60075 | 8142 ft | 269 kts | 211° |
| 2026-05-06 04:52 | 41.95178 | -83.61228 | 8901 ft | 268 kts | 211° |
| 2026-05-06 04:53 | 41.93557 | -83.62355 | 9641 ft | 268 kts | 211° |
| 2026-05-06 04:53 | 41.91895 | -83.63513 | 9936 ft | 268 kts | 211° |
| 2026-05-06 04:53 | 41.90265 | -83.64655 | 10006 ft | 267 kts | 211° |
| 2026-05-06 04:53 | 41.88618 | -83.65818 | 10026 ft | 268 kts | 211° |
| 2026-05-06 04:54 | 41.86952 | -83.66993 | 10032 ft | 273 kts | 211° |
| 2026-05-06 04:54 | 41.85264 | -83.68181 | 10034 ft | 277 kts | 211° |
| 2026-05-06 04:54 | 41.83607 | -83.69345 | 10034 ft | 275 kts | 211° |
| 2026-05-06 04:54 | 41.81899 | -83.70551 | 10319 ft | 287 kts | 211° |
| 2026-05-06 04:55 | 41.80115 | -83.71818 | 10428 ft | 307 kts | 211° |
| 2026-05-06 04:55 | 41.78163 | -83.73203 | 10551 ft | 327 kts | 211° |
| 2026-05-06 04:55 | 41.76093 | -83.74659 | 10672 ft | 345 kts | 211° |
| 2026-05-06 04:55 | 41.73928 | -83.76178 | 11017 ft | 355 kts | 210° |
| 2026-05-06 04:56 | 41.71727 | -83.77717 | 11581 ft | 358 kts | 210° |
| 2026-05-06 04:56 | 41.69513 | -83.79269 | 12197 ft | 361 kts | 211° |
| 2026-05-06 04:56 | 41.67316 | -83.80919 | 12819 ft | 363 kts | 213° |
| 2026-05-06 04:56 | 41.65146 | -83.82651 | 13455 ft | 365 kts | 214° |
| 2026-05-06 04:57 | 41.63044 | -83.84380 | 13988 ft | 367 kts | 214° |
| 2026-05-06 04:57 | 41.60853 | -83.86192 | 14511 ft | 370 kts | 215° |
| 2026-05-06 04:57 | 41.58710 | -83.87950 | 15010 ft | 373 kts | 215° |
| 2026-05-06 04:57 | 41.56454 | -83.89782 | 15568 ft | 376 kts | 215° |
| 2026-05-06 04:58 | 41.54245 | -83.91561 | 16101 ft | 379 kts | 215° |
| 2026-05-06 04:58 | 41.51981 | -83.93376 | 16658 ft | 381 kts | 215° |
| 2026-05-06 04:58 | 41.49697 | -83.95199 | 17193 ft | 383 kts | 215° |
| 2026-05-06 04:59 | 41.48760 | -83.95946 | 17388 ft | 384 kts | 216° |
| 2026-05-06 04:59 | 41.46460 | -83.97788 | 17879 ft | 386 kts | 216° |
| 2026-05-06 04:59 | 41.44147 | -83.99635 | 18326 ft | 389 kts | 216° |
| 2026-05-06 04:59 | 41.41851 | -84.01465 | 18755 ft | 391 kts | 216° |
| 2026-05-06 05:00 | 41.39515 | -84.03323 | 19176 ft | 392 kts | 215° |
| 2026-05-06 05:00 | 41.37167 | -84.05188 | 19606 ft | 394 kts | 215° |
| 2026-05-06 05:00 | 41.34815 | -84.07054 | 20040 ft | 395 kts | 215° |
| 2026-05-06 05:00 | 41.32450 | -84.08929 | 20487 ft | 396 kts | 215° |
| 2026-05-06 05:01 | 41.30084 | -84.10805 | 20934 ft | 396 kts | 215° |
| 2026-05-06 05:01 | 41.27778 | -84.12804 | 21364 ft | 394 kts | 221° |
| 2026-05-06 05:01 | 41.25790 | -84.15285 | 21774 ft | 391 kts | 231° |
| 2026-05-06 05:01 | 41.24207 | -84.18164 | 22190 ft | 391 kts | 240° |
| 2026-05-06 05:02 | 41.23033 | -84.21418 | 22588 ft | 392 kts | 248° |
| 2026-05-06 05:02 | 41.22039 | -84.24789 | 23005 ft | 392 kts | 248° |
| 2026-05-06 05:02 | 41.21034 | -84.28165 | 23396 ft | 394 kts | 247° |
| 2026-05-06 05:02 | 41.20045 | -84.31455 | 23669 ft | 396 kts | 247° |
| 2026-05-06 05:03 | 41.19020 | -84.34858 | 23932 ft | 398 kts | 247° |
| 2026-05-06 05:03 | 41.18672 | -84.36010 | 24019 ft | 399 kts | 247° |
| 2026-05-06 05:03 | 41.17836 | -84.38801 | 24276 ft | 400 kts | 247° |
| 2026-05-06 05:04 | 41.16843 | -84.42114 | 24580 ft | 401 kts | 247° |
| 2026-05-06 05:04 | 41.15808 | -84.45551 | 24898 ft | 402 kts | 247° |
| 2026-05-06 05:04 | 41.14766 | -84.49006 | 25220 ft | 403 kts | 247° |
| 2026-05-06 05:04 | 41.13721 | -84.52465 | 25537 ft | 405 kts | 248° |
| 2026-05-06 05:05 | 41.12725 | -84.55756 | 25818 ft | 406 kts | 248° |
| 2026-05-06 05:05 | 41.11635 | -84.59355 | 26247 ft | 404 kts | 248° |
| 2026-05-06 05:05 | 41.10598 | -84.62796 | 26677 ft | 401 kts | 249° |
| 2026-05-06 05:05 | 41.09832 | -84.66352 | 27096 ft | 401 kts | 256° |
| 2026-05-06 05:06 | 41.09237 | -84.69944 | 27563 ft | 397 kts | 256° |
| 2026-05-06 05:06 | 41.08646 | -84.73503 | 27961 ft | 394 kts | 257° |
| 2026-05-06 05:06 | 41.08055 | -84.77025 | 28280 ft | 393 kts | 257° |
| 2026-05-06 05:06 | 41.07467 | -84.80544 | 28621 ft | 391 kts | 256° |
| 2026-05-06 05:07 | 41.06867 | -84.84056 | 29043 ft | 390 kts | 257° |
| 2026-05-06 05:07 | 41.06267 | -84.87547 | 29477 ft | 388 kts | 257° |
| 2026-05-06 05:07 | 41.05670 | -84.91018 | 29900 ft | 386 kts | 257° |
| 2026-05-06 05:07 | 41.05078 | -84.94476 | 30267 ft | 384 kts | 257° |
| 2026-05-06 05:08 | 41.04493 | -84.97912 | 30634 ft | 381 kts | 257° |
| 2026-05-06 05:08 | 41.03910 | -85.01338 | 30870 ft | 380 kts | 257° |
| 2026-05-06 05:08 | 41.03327 | -85.04738 | 30950 ft | 378 kts | 257° |
| 2026-05-06 05:09 | 41.02166 | -85.11472 | 30916 ft | 373 kts | 258° |
| 2026-05-06 05:09 | 41.01008 | -85.18160 | 30921 ft | 372 kts | 258° |
| 2026-05-06 05:10 | 40.99854 | -85.24834 | 30925 ft | 372 kts | 258° |
| 2026-05-06 05:10 | 40.98705 | -85.31465 | 30922 ft | 372 kts | 258° |
| 2026-05-06 05:11 | 40.97548 | -85.38129 | 30926 ft | 372 kts | 258° |
| 2026-05-06 05:11 | 40.96377 | -85.44792 | 30940 ft | 371 kts | 257° |
| 2026-05-06 05:12 | 40.95210 | -85.51444 | 30939 ft | 371 kts | 257° |
| 2026-05-06 05:12 | 40.94046 | -85.58083 | 30935 ft | 370 kts | 257° |
| 2026-05-06 05:13 | 40.92873 | -85.64713 | 30933 ft | 370 kts | 257° |
| 2026-05-06 05:13 | 40.91696 | -85.71342 | 30922 ft | 370 kts | 257° |
| 2026-05-06 05:14 | 40.90521 | -85.77954 | 30916 ft | 370 kts | 257° |
| 2026-05-06 05:14 | 40.89333 | -85.84577 | 30908 ft | 370 kts | 257° |
| 2026-05-06 05:15 | 40.88274 | -85.91217 | 30909 ft | 369 kts | 262° |
| 2026-05-06 05:15 | 40.87563 | -85.97939 | 30909 ft | 370 kts | 262° |
| 2026-05-06 05:16 | 40.86844 | -86.04667 | 30908 ft | 370 kts | 261° |
| 2026-05-06 05:16 | 40.86119 | -86.11384 | 30907 ft | 369 kts | 261° |
| 2026-05-06 05:17 | 40.85398 | -86.18061 | 30928 ft | 369 kts | 261° |
| 2026-05-06 05:17 | 40.84675 | -86.24772 | 30904 ft | 369 kts | 262° |
| 2026-05-06 05:18 | 40.83947 | -86.31461 | 30899 ft | 367 kts | 261° |
| 2026-05-06 05:18 | 40.83210 | -86.38129 | 30913 ft | 367 kts | 261° |
| 2026-05-06 05:19 | 40.82470 | -86.44781 | 30911 ft | 366 kts | 261° |
| 2026-05-06 05:19 | 40.81852 | -86.50302 | 30919 ft | 366 kts | 261° |
| 2026-05-06 05:20 | 40.81106 | -86.56943 | 30942 ft | 365 kts | 261° |
| 2026-05-06 05:20 | 40.80367 | -86.63583 | 30934 ft | 365 kts | 261° |
| 2026-05-06 05:21 | 40.79625 | -86.70206 | 30932 ft | 365 kts | 261° |
| 2026-05-06 05:21 | 40.78877 | -86.76839 | 30945 ft | 367 kts | 261° |
| 2026-05-06 05:21 | 40.78497 | -86.80175 | 31181 ft | 368 kts | 261° |
| 2026-05-06 05:22 | 40.78116 | -86.83507 | 31501 ft | 366 kts | 261° |
| 2026-05-06 05:22 | 40.77735 | -86.86824 | 31854 ft | 364 kts | 261° |
| 2026-05-06 05:22 | 40.77355 | -86.90123 | 31926 ft | 363 kts | 261° |
| 2026-05-06 05:23 | 40.76594 | -86.96694 | 31946 ft | 362 kts | 261° |
| 2026-05-06 05:23 | 40.75442 | -87.06546 | 31934 ft | 363 kts | 261° |
| 2026-05-06 05:24 | 40.74678 | -87.13112 | 31931 ft | 362 kts | 261° |
| 2026-05-06 05:24 | 40.73911 | -87.19677 | 31931 ft | 362 kts | 261° |
| 2026-05-06 05:25 | 40.73136 | -87.26246 | 31931 ft | 362 kts | 261° |
| 2026-05-06 05:25 | 40.72359 | -87.32812 | 31934 ft | 362 kts | 261° |
| 2026-05-06 05:26 | 40.71575 | -87.39372 | 31928 ft | 362 kts | 261° |
| 2026-05-06 05:26 | 40.70791 | -87.45932 | 31931 ft | 362 kts | 261° |
| 2026-05-06 05:27 | 40.70010 | -87.52450 | 31931 ft | 362 kts | 261° |
| 2026-05-06 05:27 | 40.69213 | -87.59009 | 31931 ft | 362 kts | 260° |
| 2026-05-06 05:28 | 40.68414 | -87.65562 | 31934 ft | 362 kts | 260° |
| 2026-05-06 05:28 | 40.67614 | -87.72119 | 31950 ft | 362 kts | 260° |
| 2026-05-06 05:29 | 40.66814 | -87.78670 | 31931 ft | 362 kts | 260° |
| 2026-05-06 05:29 | 40.66004 | -87.85219 | 31931 ft | 362 kts | 260° |
| 2026-05-06 05:30 | 40.64938 | -87.91695 | 31933 ft | 363 kts | 250° |
| 2026-05-06 05:30 | 40.62280 | -87.97388 | 31935 ft | 372 kts | 234° |
| 2026-05-06 05:31 | 40.58834 | -88.02474 | 31936 ft | 373 kts | 234° |
| 2026-05-06 05:31 | 40.55386 | -88.07573 | 31938 ft | 373 kts | 234° |
| 2026-05-06 05:32 | 40.51938 | -88.12667 | 31944 ft | 373 kts | 234° |
| 2026-05-06 05:32 | 40.48511 | -88.17729 | 31947 ft | 373 kts | 234° |
| 2026-05-06 05:33 | 40.45062 | -88.22808 | 31930 ft | 372 kts | 234° |
| 2026-05-06 05:33 | 40.41619 | -88.27865 | 31948 ft | 371 kts | 234° |
| 2026-05-06 05:34 | 40.38184 | -88.32904 | 31949 ft | 371 kts | 234° |
| 2026-05-06 05:34 | 40.34745 | -88.37947 | 31950 ft | 371 kts | 234° |
| 2026-05-06 05:35 | 40.31310 | -88.42982 | 31949 ft | 371 kts | 234° |
| 2026-05-06 05:35 | 40.27867 | -88.48014 | 31964 ft | 371 kts | 235° |
| 2026-05-06 05:36 | 40.24420 | -88.53035 | 31921 ft | 371 kts | 234° |
| 2026-05-06 05:36 | 40.20973 | -88.58046 | 31946 ft | 370 kts | 235° |
| 2026-05-06 05:37 | 40.17533 | -88.63044 | 31951 ft | 370 kts | 235° |
| 2026-05-06 05:37 | 40.14092 | -88.68036 | 31956 ft | 370 kts | 235° |
| 2026-05-06 05:38 | 40.10648 | -88.73023 | 31955 ft | 370 kts | 235° |
| 2026-05-06 05:38 | 40.07197 | -88.78011 | 31964 ft | 370 kts | 235° |
| 2026-05-06 05:39 | 40.03745 | -88.82995 | 31971 ft | 370 kts | 235° |
| 2026-05-06 05:39 | 40.00289 | -88.87972 | 31966 ft | 369 kts | 235° |
| 2026-05-06 05:40 | 39.96846 | -88.92925 | 31969 ft | 368 kts | 235° |
| 2026-05-06 05:40 | 39.93411 | -88.97868 | 31970 ft | 368 kts | 235° |
| 2026-05-06 05:41 | 39.89992 | -89.02773 | 31968 ft | 368 kts | 235° |
| 2026-05-06 05:41 | 39.86550 | -89.07705 | 31958 ft | 368 kts | 235° |
| 2026-05-06 05:42 | 39.83105 | -89.12630 | 31962 ft | 368 kts | 235° |
| 2026-05-06 05:42 | 39.79654 | -89.17553 | 31929 ft | 368 kts | 236° |
| 2026-05-06 05:43 | 39.76201 | -89.22483 | 31960 ft | 369 kts | 236° |
| 2026-05-06 05:43 | 39.72740 | -89.27403 | 31968 ft | 368 kts | 236° |
| 2026-05-06 05:44 | 39.69294 | -89.32292 | 31969 ft | 367 kts | 236° |
| 2026-05-06 05:44 | 39.65849 | -89.37183 | 31972 ft | 367 kts | 236° |
| 2026-05-06 05:45 | 39.62401 | -89.42065 | 31970 ft | 367 kts | 236° |
| 2026-05-06 05:45 | 39.58952 | -89.46940 | 31969 ft | 367 kts | 236° |
| 2026-05-06 05:46 | 39.55505 | -89.51818 | 31968 ft | 368 kts | 236° |
| 2026-05-06 05:46 | 39.52040 | -89.56702 | 31973 ft | 368 kts | 236° |
| 2026-05-06 05:47 | 39.48570 | -89.61574 | 31974 ft | 368 kts | 236° |
| 2026-05-06 05:47 | 39.45105 | -89.66444 | 31975 ft | 368 kts | 236° |
| 2026-05-06 05:48 | 39.41636 | -89.71308 | 31979 ft | 368 kts | 236° |
| 2026-05-06 05:48 | 39.38165 | -89.76171 | 31983 ft | 368 kts | 236° |
| 2026-05-06 05:49 | 39.34714 | -89.80996 | 31927 ft | 368 kts | 236° |
| 2026-05-06 05:49 | 39.31243 | -89.85851 | 31981 ft | 368 kts | 236° |
| 2026-05-06 05:50 | 39.27766 | -89.90699 | 31987 ft | 368 kts | 236° |
| 2026-05-06 05:50 | 39.24291 | -89.95536 | 31983 ft | 368 kts | 236° |
| 2026-05-06 05:51 | 39.20800 | -90.00371 | 32013 ft | 367 kts | 236° |
| 2026-05-06 05:51 | 39.17329 | -90.05180 | 31989 ft | 366 kts | 236° |
| 2026-05-06 05:52 | 39.13869 | -90.09982 | 31986 ft | 366 kts | 236° |
| 2026-05-06 05:52 | 39.10417 | -90.14773 | 31985 ft | 366 kts | 235° |
| 2026-05-06 05:53 | 39.06943 | -90.19563 | 31988 ft | 365 kts | 235° |
| 2026-05-06 05:53 | 39.03482 | -90.24334 | 31983 ft | 365 kts | 235° |
| 2026-05-06 05:54 | 39.00014 | -90.29112 | 31982 ft | 365 kts | 235° |
| 2026-05-06 05:54 | 38.96544 | -90.33879 | 31980 ft | 365 kts | 235° |
| 2026-05-06 05:55 | 38.93070 | -90.38645 | 32028 ft | 365 kts | 236° |
| 2026-05-06 05:55 | 38.89612 | -90.43372 | 31979 ft | 362 kts | 236° |
| 2026-05-06 05:56 | 38.86164 | -90.48092 | 31983 ft | 363 kts | 236° |
| 2026-05-06 05:56 | 38.82809 | -90.52887 | 31975 ft | 360 kts | 237° |
| 2026-05-06 05:57 | 38.79550 | -90.57757 | 31991 ft | 360 kts | 237° |
| 2026-05-06 05:57 | 38.76285 | -90.62617 | 31990 ft | 360 kts | 237° |
| 2026-05-06 05:58 | 38.73012 | -90.67432 | 31994 ft | 360 kts | 237° |
| 2026-05-06 05:58 | 38.69709 | -90.72265 | 31990 ft | 361 kts | 237° |
| 2026-05-06 05:59 | 38.66406 | -90.77092 | 32019 ft | 361 kts | 237° |
| 2026-05-06 05:59 | 38.63101 | -90.81914 | 31987 ft | 361 kts | 236° |
| 2026-05-06 06:00 | 38.59792 | -90.86729 | 31991 ft | 360 kts | 236° |
| 2026-05-06 06:00 | 38.56486 | -90.91542 | 31991 ft | 360 kts | 236° |
| 2026-05-06 06:01 | 38.53177 | -90.96350 | 32008 ft | 361 kts | 236° |
| 2026-05-06 06:01 | 38.49861 | -91.01159 | 32008 ft | 361 kts | 236° |
| 2026-05-06 06:02 | 38.46552 | -91.05967 | 32005 ft | 361 kts | 236° |
| 2026-05-06 06:02 | 38.43230 | -91.10772 | 32000 ft | 361 kts | 236° |
| 2026-05-06 06:03 | 38.39906 | -91.15560 | 32031 ft | 360 kts | 237° |
| 2026-05-06 06:03 | 38.36602 | -91.20323 | 32006 ft | 358 kts | 237° |
| 2026-05-06 06:04 | 38.33307 | -91.25072 | 32010 ft | 358 kts | 237° |
| 2026-05-06 06:04 | 38.30027 | -91.29787 | 32016 ft | 358 kts | 237° |
| 2026-05-06 06:05 | 38.26728 | -91.34527 | 32008 ft | 358 kts | 237° |
| 2026-05-06 06:05 | 38.23425 | -91.39265 | 32006 ft | 358 kts | 237° |
| 2026-05-06 06:06 | 38.20118 | -91.43998 | 32009 ft | 358 kts | 237° |
| 2026-05-06 06:06 | 38.16806 | -91.48722 | 31995 ft | 358 kts | 236° |
| 2026-05-06 06:07 | 38.13497 | -91.53449 | 32016 ft | 358 kts | 236° |
| 2026-05-06 06:07 | 38.10186 | -91.58169 | 32011 ft | 358 kts | 236° |
| 2026-05-06 06:08 | 38.06875 | -91.62880 | 32013 ft | 358 kts | 236° |
| 2026-05-06 06:08 | 38.03561 | -91.67590 | 32014 ft | 357 kts | 236° |
| 2026-05-06 06:09 | 38.00806 | -91.71498 | 32014 ft | 358 kts | 236° |
| 2026-05-06 06:09 | 37.97487 | -91.76195 | 32011 ft | 358 kts | 236° |
| 2026-05-06 06:10 | 37.94170 | -91.80890 | 31996 ft | 358 kts | 236° |
| 2026-05-06 06:10 | 37.90842 | -91.85598 | 31996 ft | 359 kts | 236° |
| 2026-05-06 06:11 | 37.87505 | -91.90304 | 31991 ft | 359 kts | 236° |
| 2026-05-06 06:11 | 37.84167 | -91.95012 | 31989 ft | 359 kts | 236° |
| 2026-05-06 06:12 | 37.80823 | -91.99718 | 31990 ft | 359 kts | 236° |
| 2026-05-06 06:12 | 37.77476 | -92.04413 | 31989 ft | 360 kts | 236° |
| 2026-05-06 06:13 | 37.74122 | -92.09104 | 31990 ft | 360 kts | 236° |
| 2026-05-06 06:13 | 37.70775 | -92.13799 | 31989 ft | 360 kts | 236° |
| 2026-05-06 06:14 | 37.67424 | -92.18498 | 32004 ft | 361 kts | 236° |
| 2026-05-06 06:14 | 37.64060 | -92.23203 | 31998 ft | 361 kts | 236° |
| 2026-05-06 06:15 | 37.60687 | -92.27899 | 31984 ft | 361 kts | 236° |
| 2026-05-06 06:15 | 37.57337 | -92.32562 | 31992 ft | 361 kts | 236° |
| 2026-05-06 06:16 | 37.53972 | -92.37239 | 32012 ft | 360 kts | 236° |
| 2026-05-06 06:16 | 37.50605 | -92.41915 | 32012 ft | 360 kts | 236° |
| 2026-05-06 06:17 | 37.47233 | -92.46588 | 32015 ft | 360 kts | 236° |
| 2026-05-06 06:17 | 37.43858 | -92.51258 | 31994 ft | 361 kts | 236° |
| 2026-05-06 06:18 | 37.40476 | -92.55937 | 32012 ft | 361 kts | 236° |
| 2026-05-06 06:18 | 37.37095 | -92.60615 | 32013 ft | 361 kts | 236° |
| 2026-05-06 06:19 | 37.33712 | -92.65280 | 32007 ft | 362 kts | 235° |
| 2026-05-06 06:19 | 37.30317 | -92.69940 | 32002 ft | 361 kts | 235° |
| 2026-05-06 06:20 | 37.26932 | -92.74588 | 31996 ft | 360 kts | 236° |
| 2026-05-06 06:20 | 37.23554 | -92.79231 | 32000 ft | 360 kts | 236° |
| 2026-05-06 06:21 | 37.20197 | -92.83836 | 32001 ft | 360 kts | 235° |
| 2026-05-06 06:21 | 37.16809 | -92.88464 | 31999 ft | 360 kts | 235° |
| 2026-05-06 06:22 | 37.13419 | -92.93095 | 32005 ft | 360 kts | 235° |
| 2026-05-06 06:22 | 37.10032 | -92.97726 | 32002 ft | 360 kts | 235° |
| 2026-05-06 06:23 | 37.06640 | -93.02347 | 32004 ft | 360 kts | 235° |
| 2026-05-06 06:23 | 37.03249 | -93.06961 | 32006 ft | 360 kts | 235° |
| 2026-05-06 06:24 | 36.99861 | -93.11565 | 32005 ft | 359 kts | 235° |
| 2026-05-06 06:24 | 36.96475 | -93.16163 | 32001 ft | 359 kts | 235° |
| 2026-05-06 06:25 | 36.93079 | -93.20756 | 31997 ft | 361 kts | 235° |
| 2026-05-06 06:26 | 36.87972 | -93.27671 | 32006 ft | 361 kts | 235° |
| 2026-05-06 06:26 | 36.84559 | -93.32274 | 31993 ft | 361 kts | 235° |
| 2026-05-06 06:27 | 36.81146 | -93.36874 | 31995 ft | 361 kts | 235° |
| 2026-05-06 06:27 | 36.77737 | -93.41468 | 32001 ft | 361 kts | 234° |
| 2026-05-06 06:28 | 36.74316 | -93.46061 | 31997 ft | 361 kts | 234° |
| 2026-05-06 06:28 | 36.70903 | -93.50645 | 31991 ft | 361 kts | 234° |
| 2026-05-06 06:29 | 36.67477 | -93.55237 | 31993 ft | 362 kts | 235° |
| 2026-05-06 06:29 | 36.64066 | -93.59793 | 32000 ft | 362 kts | 235° |
| 2026-05-06 06:30 | 36.60632 | -93.64386 | 32001 ft | 362 kts | 235° |
| 2026-05-06 06:30 | 36.57204 | -93.68983 | 31997 ft | 362 kts | 235° |
| 2026-05-06 06:31 | 36.53773 | -93.73570 | 31997 ft | 362 kts | 235° |
| 2026-05-06 06:31 | 36.50336 | -93.78148 | 32001 ft | 362 kts | 235° |
| 2026-05-06 06:32 | 36.46890 | -93.82720 | 31994 ft | 362 kts | 234° |
| 2026-05-06 06:32 | 36.43454 | -93.87279 | 31944 ft | 361 kts | 234° |
| 2026-05-06 06:33 | 36.40012 | -93.91844 | 31996 ft | 363 kts | 234° |
| 2026-05-06 06:33 | 36.36563 | -93.96415 | 31998 ft | 363 kts | 234° |
| 2026-05-06 06:34 | 36.33109 | -94.00973 | 31998 ft | 362 kts | 234° |
| 2026-05-06 06:34 | 36.29652 | -94.05516 | 31998 ft | 362 kts | 234° |
| 2026-05-06 06:35 | 36.26031 | -94.09899 | 31974 ft | 372 kts | 226° |
| 2026-05-06 06:35 | 36.23780 | -94.11574 | 31975 ft | 386 kts | 217° |
| 2026-05-06 06:35 | 36.21190 | -94.12706 | 31972 ft | 405 kts | 206° |
| 2026-05-06 06:36 | 36.15493 | -94.13763 | 31955 ft | 415 kts | 202° |
| 2026-05-06 06:36 | 36.09772 | -94.14757 | 31967 ft | 415 kts | 202° |
| 2026-05-06 06:37 | 36.04093 | -94.15759 | 31977 ft | 415 kts | 202° |
| 2026-05-06 06:37 | 35.98383 | -94.16768 | 31976 ft | 415 kts | 202° |
| 2026-05-06 06:38 | 35.92668 | -94.17768 | 31978 ft | 415 kts | 202° |
| 2026-05-06 06:38 | 35.86954 | -94.18764 | 31976 ft | 415 kts | 202° |
| 2026-05-06 06:39 | 35.81235 | -94.19770 | 31935 ft | 415 kts | 202° |
| 2026-05-06 06:39 | 35.75527 | -94.20772 | 31924 ft | 413 kts | 202° |
| 2026-05-06 06:40 | 35.69839 | -94.21758 | 31932 ft | 411 kts | 202° |
| 2026-05-06 06:40 | 35.64163 | -94.22738 | 31917 ft | 412 kts | 202° |
| 2026-05-06 06:41 | 35.58495 | -94.23743 | 31919 ft | 411 kts | 202° |
| 2026-05-06 06:41 | 35.52826 | -94.24732 | 31915 ft | 412 kts | 201° |
| 2026-05-06 06:42 | 35.47152 | -94.25708 | 31918 ft | 412 kts | 201° |
| 2026-05-06 06:42 | 35.41559 | -94.26883 | 31884 ft | 398 kts | 209° |
| 2026-05-06 06:42 | 35.39013 | -94.28060 | 31924 ft | 385 kts | 217° |
| 2026-05-06 06:43 | 35.36725 | -94.29666 | 31926 ft | 374 kts | 224° |
| 2026-05-06 06:43 | 35.32822 | -94.33718 | 31924 ft | 367 kts | 230° |
| 2026-05-06 06:44 | 35.29002 | -94.37863 | 31922 ft | 367 kts | 229° |
| 2026-05-06 06:44 | 35.25171 | -94.41995 | 31923 ft | 367 kts | 230° |
| 2026-05-06 06:45 | 35.21349 | -94.46123 | 31920 ft | 367 kts | 230° |
| 2026-05-06 06:45 | 35.17527 | -94.50261 | 31914 ft | 367 kts | 230° |
| 2026-05-06 06:46 | 35.13698 | -94.54396 | 31933 ft | 368 kts | 230° |
| 2026-05-06 06:46 | 35.09852 | -94.58545 | 31939 ft | 369 kts | 229° |
| 2026-05-06 06:47 | 35.06035 | -94.62657 | 31953 ft | 368 kts | 229° |
| 2026-05-06 06:47 | 35.02195 | -94.66797 | 31942 ft | 369 kts | 229° |
| 2026-05-06 06:48 | 34.98348 | -94.70936 | 31901 ft | 369 kts | 229° |
| 2026-05-06 06:48 | 34.94497 | -94.75058 | 31904 ft | 369 kts | 229° |
| 2026-05-06 06:49 | 34.90646 | -94.79178 | 31915 ft | 369 kts | 229° |
| 2026-05-06 06:49 | 34.86782 | -94.83317 | 31897 ft | 370 kts | 229° |
| 2026-05-06 06:50 | 34.82911 | -94.87466 | 31898 ft | 371 kts | 229° |
| 2026-05-06 06:50 | 34.78996 | -94.91564 | 31901 ft | 372 kts | 228° |
| 2026-05-06 06:51 | 34.75027 | -94.95591 | 31907 ft | 372 kts | 227° |
| 2026-05-06 06:51 | 34.71064 | -94.99599 | 31894 ft | 370 kts | 228° |
| 2026-05-06 06:52 | 34.67128 | -95.03609 | 31905 ft | 369 kts | 228° |
| 2026-05-06 06:52 | 34.63220 | -95.07590 | 31904 ft | 369 kts | 228° |
| 2026-05-06 06:53 | 34.59281 | -95.11595 | 31895 ft | 370 kts | 228° |
| 2026-05-06 06:53 | 34.55335 | -95.15605 | 31894 ft | 370 kts | 227° |
| 2026-05-06 06:54 | 34.51387 | -95.19611 | 31892 ft | 370 kts | 227° |
| 2026-05-06 06:54 | 34.47438 | -95.23616 | 31893 ft | 370 kts | 228° |
| 2026-05-06 06:55 | 34.43485 | -95.27615 | 31896 ft | 370 kts | 227° |
| 2026-05-06 06:55 | 34.39519 | -95.31600 | 31893 ft | 370 kts | 227° |
| 2026-05-06 06:56 | 34.35560 | -95.35578 | 31856 ft | 370 kts | 227° |
| 2026-05-06 06:56 | 34.31587 | -95.39583 | 31905 ft | 373 kts | 227° |
| 2026-05-06 06:57 | 34.27591 | -95.43592 | 31904 ft | 373 kts | 227° |
| 2026-05-06 06:57 | 34.23624 | -95.47575 | 31908 ft | 373 kts | 227° |
| 2026-05-06 06:58 | 34.19604 | -95.51602 | 31910 ft | 373 kts | 227° |
| 2026-05-06 06:58 | 34.15626 | -95.55569 | 31913 ft | 373 kts | 227° |
| 2026-05-06 06:59 | 34.11623 | -95.59560 | 31915 ft | 373 kts | 227° |
| 2026-05-06 06:59 | 34.07624 | -95.63553 | 31876 ft | 374 kts | 227° |
| 2026-05-06 07:00 | 34.03610 | -95.67554 | 31762 ft | 375 kts | 227° |
| 2026-05-06 07:00 | 34.01592 | -95.69562 | 31517 ft | 376 kts | 227° |
| 2026-05-06 07:00 | 34.00257 | -95.70888 | 31354 ft | 377 kts | 227° |
| 2026-05-06 07:00 | 33.98235 | -95.72896 | 31117 ft | 376 kts | 227° |
| 2026-05-06 07:01 | 33.96219 | -95.74898 | 30876 ft | 375 kts | 227° |
| 2026-05-06 07:01 | 33.94208 | -95.76897 | 30638 ft | 376 kts | 227° |
| 2026-05-06 07:01 | 33.92188 | -95.78908 | 30426 ft | 377 kts | 227° |
| 2026-05-06 07:01 | 33.90157 | -95.80929 | 30186 ft | 379 kts | 227° |
| 2026-05-06 07:02 | 33.88118 | -95.82949 | 29946 ft | 380 kts | 227° |
| 2026-05-06 07:02 | 33.86073 | -95.84972 | 29680 ft | 381 kts | 227° |
| 2026-05-06 07:02 | 33.84019 | -95.87007 | 29402 ft | 383 kts | 227° |
| 2026-05-06 07:02 | 33.81956 | -95.89048 | 29128 ft | 385 kts | 227° |
| 2026-05-06 07:03 | 33.79880 | -95.91100 | 28816 ft | 388 kts | 226° |
| 2026-05-06 07:03 | 33.77776 | -95.93160 | 28555 ft | 390 kts | 226° |
| 2026-05-06 07:03 | 33.75700 | -95.95188 | 28273 ft | 378 kts | 226° |
| 2026-05-06 07:03 | 33.73696 | -95.97156 | 28008 ft | 368 kts | 227° |
| 2026-05-06 07:04 | 33.71735 | -95.99099 | 27759 ft | 365 kts | 227° |
| 2026-05-06 07:04 | 33.69785 | -96.01037 | 27515 ft | 363 kts | 227° |
| 2026-05-06 07:04 | 33.67837 | -96.02973 | 27252 ft | 362 kts | 227° |
| 2026-05-06 07:04 | 33.65900 | -96.04894 | 26998 ft | 362 kts | 227° |
| 2026-05-06 07:05 | 33.63956 | -96.06816 | 26759 ft | 361 kts | 226° |
| 2026-05-06 07:05 | 33.62016 | -96.08727 | 26364 ft | 360 kts | 226° |
| 2026-05-06 07:05 | 33.60085 | -96.10624 | 25886 ft | 357 kts | 226° |
| 2026-05-06 07:05 | 33.58191 | -96.12481 | 25416 ft | 356 kts | 226° |
| 2026-05-06 07:06 | 33.56279 | -96.14359 | 24938 ft | 355 kts | 226° |
| 2026-05-06 07:06 | 33.54370 | -96.16233 | 24467 ft | 354 kts | 226° |
| 2026-05-06 07:06 | 33.52464 | -96.18105 | 23953 ft | 353 kts | 226° |
| 2026-05-06 07:06 | 33.50571 | -96.19960 | 23525 ft | 350 kts | 226° |
| 2026-05-06 07:07 | 33.48692 | -96.21804 | 22995 ft | 348 kts | 226° |
| 2026-05-06 07:07 | 33.46825 | -96.23639 | 22528 ft | 346 kts | 225° |
| 2026-05-06 07:07 | 33.44974 | -96.25472 | 22077 ft | 343 kts | 228° |
| 2026-05-06 07:07 | 33.43370 | -96.27528 | 21607 ft | 337 kts | 234° |
| 2026-05-06 07:08 | 33.41846 | -96.29639 | 21258 ft | 331 kts | 233° |
| 2026-05-06 07:08 | 33.40351 | -96.31698 | 20927 ft | 325 kts | 233° |
| 2026-05-06 07:08 | 33.38871 | -96.33735 | 20433 ft | 323 kts | 233° |
| 2026-05-06 07:08 | 33.37395 | -96.35768 | 19869 ft | 324 kts | 233° |
| 2026-05-06 07:09 | 33.35930 | -96.37784 | 19447 ft | 320 kts | 233° |
| 2026-05-06 07:09 | 33.34473 | -96.39784 | 19005 ft | 317 kts | 233° |
| 2026-05-06 07:09 | 33.33031 | -96.41764 | 18581 ft | 314 kts | 233° |
| 2026-05-06 07:09 | 33.31604 | -96.43733 | 18156 ft | 312 kts | 233° |
| 2026-05-06 07:10 | 33.30201 | -96.45693 | 17751 ft | 309 kts | 233° |
| 2026-05-06 07:10 | 33.28806 | -96.47654 | 17377 ft | 310 kts | 234° |
| 2026-05-06 07:10 | 33.27414 | -96.49612 | 16965 ft | 309 kts | 233° |
| 2026-05-06 07:10 | 33.26007 | -96.51541 | 16668 ft | 309 kts | 232° |
| 2026-05-06 07:11 | 33.24574 | -96.53450 | 16365 ft | 308 kts | 232° |
| 2026-05-06 07:11 | 33.23126 | -96.55349 | 16056 ft | 308 kts | 232° |
| 2026-05-06 07:11 | 33.21685 | -96.57228 | 15768 ft | 307 kts | 232° |
| 2026-05-06 07:11 | 33.20260 | -96.59085 | 15494 ft | 300 kts | 232° |
| 2026-05-06 07:12 | 33.18866 | -96.60905 | 15170 ft | 294 kts | 232° |
| 2026-05-06 07:12 | 33.17497 | -96.62711 | 14869 ft | 293 kts | 233° |
| 2026-05-06 07:12 | 33.16151 | -96.64533 | 14487 ft | 291 kts | 233° |
| 2026-05-06 07:12 | 33.14827 | -96.66356 | 14123 ft | 290 kts | 233° |
| 2026-05-06 07:13 | 33.13512 | -96.68176 | 13758 ft | 289 kts | 233° |
| 2026-05-06 07:13 | 33.12217 | -96.69967 | 13381 ft | 287 kts | 233° |
| 2026-05-06 07:13 | 33.10933 | -96.71729 | 13248 ft | 275 kts | 233° |
| 2026-05-06 07:13 | 33.09699 | -96.73413 | 13116 ft | 264 kts | 233° |
| 2026-05-06 07:14 | 33.08506 | -96.75043 | 12898 ft | 257 kts | 234° |
| 2026-05-06 07:14 | 33.07347 | -96.76632 | 12636 ft | 253 kts | 234° |
| 2026-05-06 07:14 | 33.06192 | -96.78208 | 12392 ft | 252 kts | 234° |
| 2026-05-06 07:14 | 33.05036 | -96.79777 | 12137 ft | 251 kts | 234° |
| 2026-05-06 07:15 | 33.03881 | -96.81341 | 11918 ft | 251 kts | 234° |
| 2026-05-06 07:15 | 33.02735 | -96.82893 | 11994 ft | 251 kts | 234° |
| 2026-05-06 07:15 | 33.01581 | -96.84456 | 12015 ft | 252 kts | 233° |
| 2026-05-06 07:15 | 33.00432 | -96.86010 | 12013 ft | 244 kts | 233° |
| 2026-05-06 07:16 | 32.99343 | -96.87477 | 12013 ft | 230 kts | 234° |
| 2026-05-06 07:16 | 32.98301 | -96.88879 | 12014 ft | 226 kts | 232° |
| 2026-05-06 07:16 | 32.97022 | -96.90009 | 12017 ft | 236 kts | 212° |
| 2026-05-06 07:16 | 32.95372 | -96.90462 | 11771 ft | 251 kts | 193° |
| 2026-05-06 07:17 | 32.93634 | -96.90572 | 11527 ft | 251 kts | 193° |
| 2026-05-06 07:17 | 32.91890 | -96.90686 | 11287 ft | 251 kts | 193° |
| 2026-05-06 07:17 | 32.90148 | -96.90807 | 11037 ft | 251 kts | 193° |
| 2026-05-06 07:17 | 32.88409 | -96.90933 | 10806 ft | 251 kts | 193° |
| 2026-05-06 07:18 | 32.86626 | -96.91073 | 10568 ft | 272 kts | 193° |
| 2026-05-06 07:18 | 32.84679 | -96.91236 | 10290 ft | 286 kts | 192° |
| 2026-05-06 07:18 | 32.82680 | -96.91383 | 10007 ft | 289 kts | 191° |
| 2026-05-06 07:18 | 32.80671 | -96.91517 | 9726 ft | 290 kts | 191° |
| 2026-05-06 07:19 | 32.78658 | -96.91624 | 9428 ft | 289 kts | 189° |
| 2026-05-06 07:19 | 32.76649 | -96.91648 | 9154 ft | 288 kts | 187° |
| 2026-05-06 07:19 | 32.74644 | -96.91633 | 8880 ft | 287 kts | 187° |
| 2026-05-06 07:19 | 32.72661 | -96.91612 | 8607 ft | 284 kts | 186° |
| 2026-05-06 07:20 | 32.70688 | -96.91593 | 8334 ft | 282 kts | 186° |
| 2026-05-06 07:20 | 32.68724 | -96.91578 | 8062 ft | 282 kts | 185° |
| 2026-05-06 07:20 | 32.66794 | -96.91572 | 7806 ft | 280 kts | 185° |
| 2026-05-06 07:20 | 32.64856 | -96.91570 | 7542 ft | 278 kts | 185° |
| 2026-05-06 07:21 | 32.62925 | -96.91570 | 7267 ft | 276 kts | 185° |
| 2026-05-06 07:21 | 32.61048 | -96.91776 | 6943 ft | 266 kts | 202° |
| 2026-05-06 07:21 | 32.59510 | -96.92874 | 6619 ft | 257 kts | 229° |
| 2026-05-06 07:21 | 32.58648 | -96.94687 | 6268 ft | 255 kts | 256° |
| 2026-05-06 07:22 | 32.58671 | -96.96748 | 6120 ft | 250 kts | 279° |
| 2026-05-06 07:22 | 32.59114 | -96.98710 | 5945 ft | 244 kts | 282° |
| 2026-05-06 07:22 | 32.59595 | -97.00633 | 5630 ft | 243 kts | 282° |
| 2026-05-06 07:22 | 32.60102 | -97.02560 | 5255 ft | 245 kts | 286° |
| 2026-05-06 07:23 | 32.61043 | -97.04264 | 4916 ft | 253 kts | 309° |
| 2026-05-06 07:23 | 32.62514 | -97.05408 | 4690 ft | 255 kts | 340° |
| 2026-05-06 07:23 | 32.64241 | -97.05623 | 4524 ft | 248 kts | 357° |
| 2026-05-06 07:23 | 32.65954 | -97.05603 | 4088 ft | 243 kts | 359° |
| 2026-05-06 07:24 | 32.67647 | -97.05587 | 3555 ft | 243 kts | 359° |
| 2026-05-06 07:24 | 32.69282 | -97.05579 | 3207 ft | 229 kts | 360° |
| 2026-05-06 07:24 | 32.70841 | -97.05570 | 3018 ft | 221 kts | 1° |
| 2026-05-06 07:24 | 32.72377 | -97.05563 | 3037 ft | 220 kts | 0° |
| 2026-05-06 07:25 | 32.73867 | -97.05555 | 3019 ft | 208 kts | 1° |
| 2026-05-06 07:25 | 32.75286 | -97.05548 | 3000 ft | 201 kts | 1° |
| 2026-05-06 07:25 | 32.76654 | -97.05541 | 2820 ft | 188 kts | 1° |
| 2026-05-06 07:25 | 32.77930 | -97.05536 | 2548 ft | 181 kts | 360° |
| 2026-05-06 07:26 | 32.79163 | -97.05529 | 2316 ft | 178 kts | 360° |
| 2026-05-06 07:26 | 32.80409 | -97.05522 | 2077 ft | 176 kts | 360° |
| 2026-05-06 07:26 | 32.81614 | -97.05516 | 1847 ft | 174 kts | 360° |
| 2026-05-06 07:26 | 32.82744 | -97.05510 | 1620 ft | 153 kts | 359° |
| 2026-05-06 07:27 | 32.83779 | -97.05507 | 1419 ft | 145 kts | 360° |
| 2026-05-06 07:27 | 32.84778 | -97.05494 | 1246 ft | 142 kts | 0° |
| 2026-05-06 07:27 | 32.85763 | -97.05483 | 1061 ft | 141 kts | 0° |
| 2026-05-06 07:27 | 32.86741 | -97.05483 | 883 ft | 140 kts | 360° |
| 2026-05-06 07:28 | 32.87714 | -97.05482 | 677 ft | 140 kts | 360° |
| 2026-05-06 07:28 | 32.88650 | -97.05482 | 595 ft | 120 kts | 0° |
| 2026-05-06 07:28 | 32.89652 | -97.05474 | 616 ft | 34 kts | 0° |
| 2026-05-06 07:29 | 32.89855 | -97.05445 | 612 ft | 29 kts | 19° |
| 2026-05-06 07:29 | 32.90009 | -97.05352 | 611 ft | 18 kts | 30° |
| 2026-05-06 07:29 | 32.90104 | -97.05283 | 602 ft | 12 kts | 41° |
| 2026-05-06 07:29 | 32.90117 | -97.05168 | 599 ft | 16 kts | 90° |
| 2026-05-06 07:30 | 32.90116 | -97.05021 | 598 ft | 19 kts | 91° |
| 2026-05-06 07:30 | 32.90116 | -97.04874 | 599 ft | 15 kts | 90° |
| 2026-05-06 07:30 | 32.90111 | -97.04778 | 598 ft | 12 kts | 108° |
| 2026-05-06 07:30 | 32.90039 | -97.04761 | 599 ft | 11 kts | 183° |
| 2026-05-06 07:31 | 32.90009 | -97.04694 | 598 ft | 13 kts | 96° |
| 2026-05-06 07:31 | 32.89930 | -97.04664 | 598 ft | 15 kts | 182° |
| 2026-05-06 07:31 | 32.89812 | -97.04667 | 598 ft | 18 kts | 181° |
| 2026-05-06 07:31 | 32.89734 | -97.04666 | 598 ft | 8 kts | 172° |
| 2026-05-06 07:32 | 32.89711 | -97.04634 | 598 ft | 6 kts | 96° |
| 2026-05-06 07:32 | 32.89710 | -97.04582 | 598 ft | 4 kts | 91° |
| 2026-05-06 07:32 | 32.89710 | -97.04573 | 598 ft | 0 kts | 91° |